Vallejo, CA (94589)

12:05 PM PDT on September 23, 2014 (GMT -0700)
Federal Terrace, VSFCD | Change Station
CLOSE
Current Station
Personal Weather Station
Location: Vallejo, CA
Elevation: 34 ft
Nearby Weather Stations

Elev 34 ft 38.13 °N, 122.27 °W | Updated 10 minutes ago

Clear
Clear
71.2 °F
Feels Like 74 °F
N
7.0
Wind Variable Wind from West
Gusts 8.0 mph

Today
High -- | Low -- °F
--% Chance of Precip.
Yesterday
High -- | Low -- °F
Precip. -- in
6:57 AM 7:04 PM
Waning Crescent, 0% visible
Pressure 29.97 in
Visibility 10.0 miles
Clouds Clear
Heat Index 74 °F
Dew Point 62 °F
Humidity 73%
Rainfall 0.00 in
Snow Depth 0 in , 0 in , 2 in
UV 5.4 out of 12
Pollen 3.80 out of 12
Air Quality Not available.
Flu Activity Not available.
METAR KAPC 231854Z AUTO 20008KT 10SM CLR 23/16 A2999 RMK AO2 SLP147 T02280156

More Conditions Fewer Conditions

Pressure 29.97 in
Visibility 10.0 miles
Clouds Clear
Heat Index 74 °F
Dew Point 62 °F
Humidity 73%
Rainfall 0.00 in
Snow Depth 0 in , 0 in , 2 in
UV 5.4 out of 12
Pollen 3.80 out of 12
Air Quality Not available.
Flu Activity Not available.
METAR KAPC 231854Z AUTO 20008KT 10SM CLR 23/16 A2999 RMK AO2 SLP147 T02280156

More Conditions Fewer Conditions

10-Day Weather Forecast

Almanac

Astronomy

Sep. 23, 2014 Rise Set
Actual Time 6:57 AM PDT 7:04 PM PDT
Civil Twilight 6:31 AM PDT 7:30 PM PDT
Nautical Twilight 6:00 AM PDT 8:01 PM PDT
Astronomical Twilight 5:29 AM PDT 8:32 PM PDT
Moon 6:27 AM PDT 6:46 PM PDT
Length of Visible Light 12h 59m
Length of Day
12h 06m
Tomorrow will be 2m 27s shorter.
Waning Crescent, 0% of the Moon is Illuminated
Today
Waning Crescent
Sep 24
New
Oct 1
First Quarter
Oct 8
Full
Oct 15
Last Quarter

Today's Extremes

State Highs State Lows

Community

WunderPhotos

Upload Photos

1,755,783 photos uploaded!

Nearby

Air Quality

  Air Quality AQ Index Pollutant
Yesterday Good
OZONE
Tuesday Good
OZONE
Wednesday Good
OZONE
Thursday Good
OZONE
Friday Good
OZONE
Saturday Good
OZONE
Sunday Good
OZONE

Snow Depth

Station Depth Elevation
Leavitt Meadows 0 in 7200 ft
Rubicon #2 0 in 7500 ft
CSS Lab 2 in 6900 ft
Spratt Creek 0 in 6200 ft
Tahoe City Cross 0 in 6750 ft

Earthquake Activity

City Distance Mag. Time & Date
Yountville, California 14 miles 2.6 1:17 PM PDT
2014-09-21
Minimum magnitude displayed is 2.5.

Coastal Water Temperatures

Place Temperature
San Francisco, CA 66.0 °F
Port Chicago, CA 70.0 °F

Nearby Weather Stations